PORT of AGIOS NIKOLAOS

Country: Greece Country: Greece (GR)
Latitude / Longitude: 35.19448° / 25.7185° Show on Map Show on Map
Local Time:  UTC +3
UN/LOCODE: GRANI

Vessels in Port


No Records Found

Recent Arrivals & Departures


Vessel Name
Arrival (UTC)
Arrival (LT)
Departure (UTC)
Departure (LT)
Vessel Type: Tugs, Pilots etc  CHRISTOS VI 2014-08-30 22:02:00 2014-08-31 01:02:00 2014-09-02 17:12:00 2014-09-02 20:12:00
Vessel Type: Passenger Vessels  GOLDEN IRIS 2014-09-02 08:13:00 2014-09-02 11:13:00 2014-09-02 17:10:00 2014-09-02 20:10:00
Vessel Type: Passenger Vessels  EUROPA 2 2014-09-02 04:19:00 2014-09-02 07:19:00 2014-09-02 15:01:00 2014-09-02 18:01:00
Vessel Type: Passenger Vessels  OSTRIA 2014-09-02 14:13:00 2014-09-02 17:13:00
Vessel Type: Yachts & Others  BYE BYE 2014-08-29 08:40:00 2014-08-29 11:40:00 2014-09-02 10:29:00 2014-09-02 13:29:00
Vessel Type: Passenger Vessels  OSTRIA 2014-09-01 12:28:00 2014-09-01 15:28:00 2014-09-02 09:56:00 2014-09-02 12:56:00
Vessel Type: Passenger Vessels  LATO 2014-09-01 12:58:00 2014-09-01 15:58:00 2014-09-02 07:20:00 2014-09-02 10:20:00
Vessel Type: Yachts & Others  LIBERATION 2014-08-30 07:21:00 2014-08-30 10:21:00 2014-09-02 03:15:00 2014-09-02 06:15:00
Vessel Type: Passenger Vessels  LATO 2014-08-31 12:49:00 2014-08-31 15:49:00 2014-09-01 07:22:00 2014-09-01 10:22:00
Vessel Type: Passenger Vessels  OSTRIA 2014-08-31 13:57:00 2014-08-31 16:57:00 2014-09-01 07:10:00 2014-09-01 10:10:00

Expected Arrivals


Vessel Name
Scheduled Arrival (UTC)
Scheduled Arrival (LT)
Estimated Arrival (UTC)
Estimated Arrival (LT)
No Records Found

Wind Forecast


    
Time (UTC)
Speed
Direction
Temperature
2014-09-02 18:00:00 7 knots 179° 25°C
2014-09-02 21:00:00 9 knots 200° 26°C
2014-09-03 00:00:00 13 knots 209° 25°C
2014-09-03 03:00:00 13 knots 211° 25°C
2014-09-03 06:00:00 11 knots 204° 26°C
2014-09-03 09:00:00 11 knots 177° 27°C
2014-09-03 12:00:00 13 knots 170° 27°C
2014-09-03 15:00:00 10 knots 321° 26°C
2014-09-03 18:00:00 8 knots 277° 25°C
2014-09-03 21:00:00 8 knots 250° 25°C
2014-09-04 00:00:00 9 knots 251° 24°C
2014-09-04 03:00:00 11 knots 293° 24°C
2014-09-04 06:00:00 9 knots 311° 23°C
2014-09-04 09:00:00 8 knots 298° 24°C
2014-09-04 12:00:00 9 knots 316° 24°C
2014-09-04 15:00:00 9 knots 340° 24°C
2014-09-04 18:00:00 8 knots 331° 24°C